Time;durP1;ratioP1;P1;durP2;ratioP2;P2;SDS_P1;SDS_P2;PMS_P1;PMS_P2;Temp;Humidity;BMP_temperature;BMP_pressure;BME280_temperature;BME280_humidity;BME280_pressure;Samples;Min_cycle;Max_cycle;Signal;HPM_P1;HPM_P2
2023/05/01 00:01:26;;;;;;;4.93;2.65;;;;;;;13.62;85.34;101641.03;5265547;28;20078;-69
2023/05/01 00:03:57;;;;;;;4.72;2.55;;;;;;;13.58;84.26;101638.81;5265759;28;20028;-69
2023/05/01 00:06:29;;;;;;;3.60;2.10;;;;;;;13.60;82.09;101637.72;5267394;28;20058;-69
2023/05/01 00:09:01;;;;;;;4.22;2.25;;;;;;;13.66;85.10;101638.16;5267232;28;20035;-69
2023/05/01 00:11:34;;;;;;;4.20;2.40;;;;;;;13.59;83.43;101632.56;5265848;28;20386;-69
2023/05/01 00:14:05;;;;;;;3.83;2.53;;;;;;;13.65;81.32;101632.06;5265717;28;20086;-69
2023/05/01 00:16:36;;;;;;;4.80;2.30;;;;;;;13.63;81.99;101628.69;5267161;28;20477;-69
2023/05/01 00:19:08;;;;;;;3.85;2.22;;;;;;;13.59;83.33;101620.22;5265674;28;20024;-70
2023/05/01 00:21:39;;;;;;;3.97;2.13;;;;;;;13.59;84.98;101625.50;5266547;28;20080;-69
2023/05/01 00:24:10;;;;;;;6.55;2.47;;;;;;;13.60;83.45;101618.47;5264581;28;20032;-69
2023/05/01 00:26:42;;;;;;;3.33;2.20;;;;;;;13.60;82.06;101619.28;5262949;28;20035;-69
2023/05/01 00:29:14;;;;;;;4.18;2.30;;;;;;;13.57;81.66;101613.44;5268605;28;20090;-69
2023/05/01 00:31:46;;;;;;;3.58;1.92;;;;;;;13.54;81.50;101608.44;5268570;28;20522;-69
2023/05/01 00:34:17;;;;;;;4.20;2.25;;;;;;;13.55;81.31;101605.66;5269251;28;20029;-69
2023/05/01 00:36:48;;;;;;;4.00;2.25;;;;;;;13.48;82.02;101604.50;5266191;28;20028;-68
2023/05/01 00:39:20;;;;;;;3.58;2.33;;;;;;;13.53;83.53;101606.78;5265638;28;20024;-69
2023/05/01 00:41:51;;;;;;;6.43;2.38;;;;;;;13.56;84.83;101598.59;5266928;28;20032;-69
2023/05/01 00:44:23;;;;;;;5.13;2.20;;;;;;;13.53;81.49;101591.81;5268503;28;20024;-69
2023/05/01 00:46:55;;;;;;;4.90;2.28;;;;;;;13.55;83.37;101592.50;5260907;28;20016;-70
2023/05/01 00:49:27;;;;;;;5.90;3.00;;;;;;;13.57;81.60;101595.00;5262837;28;20040;-69
2023/05/01 00:51:58;;;;;;;4.13;2.33;;;;;;;13.50;86.47;101588.59;5236916;28;20201;-69
2023/05/01 00:54:30;;;;;;;5.35;2.22;;;;;;;13.49;84.55;101585.16;5226236;28;20037;-69
2023/05/01 00:57:01;;;;;;;5.82;2.90;;;;;;;13.50;86.23;101581.53;5221531;28;20022;-70
2023/05/01 00:59:33;;;;;;;5.53;2.50;;;;;;;13.44;85.93;101579.41;5224465;28;20506;-70
2023/05/01 01:02:04;;;;;;;6.43;2.50;;;;;;;13.48;84.46;101572.09;5228718;28;20034;-70
2023/05/01 01:04:35;;;;;;;5.03;2.67;;;;;;;13.47;86.36;101570.44;5226622;28;20120;-70
2023/05/01 01:07:14;;;;;;;4.10;2.40;;;;;;;13.51;85.33;101567.41;5229054;28;20078;-70
2023/05/01 01:09:57;;;;;;;4.63;2.67;;;;;;;13.46;85.23;101566.16;5249016;28;20428;-70
2023/05/01 01:12:46;;;;;;;4.43;2.70;;;;;;;13.61;85.49;101556.94;5249262;28;20037;-70
2023/05/01 01:15:30;;;;;;;4.18;2.60;;;;;;;13.61;87.08;101555.13;5246763;28;20035;-70
2023/05/01 01:18:15;;;;;;;3.40;2.30;;;;;;;13.52;84.53;101540.09;5250998;28;20493;-70
2023/05/01 01:21:11;;;;;;;3.65;2.42;;;;;;;13.50;84.78;101555.22;5250352;28;20064;-70
2023/05/01 01:24:14;;;;;;;6.22;2.67;;;;;;;13.51;85.05;101548.16;5249693;28;20032;-70
2023/05/01 01:27:05;;;;;;;5.65;2.92;;;;;;;13.70;86.17;101547.38;5242574;28;20042;-70
2023/05/01 01:29:45;;;;;;;4.22;2.67;;;;;;;13.53;85.66;101546.22;5249748;28;20021;-70
2023/05/01 01:32:38;;;;;;;4.97;2.70;;;;;;;13.74;84.51;101530.34;5248455;28;20581;-70
2023/05/01 01:35:18;;;;;;;5.10;2.80;;;;;;;13.54;83.28;101534.72;5249100;28;20083;-70
2023/05/01 01:38:27;;;;;;;4.22;2.72;;;;;;;13.64;85.42;101525.06;5250344;28;20275;-70
2023/05/01 01:41:08;;;;;;;5.53;2.60;;;;;;;13.43;85.96;101525.13;5245902;28;20029;-70
2023/05/01 01:43:45;;;;;;;5.70;3.08;;;;;;;13.41;84.37;101523.56;5248578;28;20114;-69
2023/05/01 01:46:19;;;;;;;5.15;2.95;;;;;;;13.31;84.69;101513.84;5246917;28;20037;-70
2023/05/01 01:48:53;;;;;;;4.43;2.80;;;;;;;13.36;84.79;101513.44;5246919;28;20387;-70
2023/05/01 01:51:26;;;;;;;4.25;2.85;;;;;;;13.23;84.00;101492.63;5246739;28;20470;-70
2023/05/01 01:53:59;;;;;;;5.32;3.28;;;;;;;13.33;86.37;101501.41;5269293;28;20118;-70
2023/05/01 01:56:33;;;;;;;5.88;2.70;;;;;;;13.27;85.36;101501.09;5269570;28;20025;-69
2023/05/01 01:59:06;;;;;;;3.92;2.80;;;;;;;13.22;86.35;101493.56;5269093;28;20164;-70
2023/05/01 02:01:40;;;;;;;5.22;3.25;;;;;;;13.26;86.23;101502.03;5268547;28;20478;-70
2023/05/01 02:04:14;;;;;;;5.05;3.05;;;;;;;13.24;87.35;101504.81;5268449;28;20115;-70
2023/05/01 02:06:47;;;;;;;6.03;2.90;;;;;;;13.18;86.90;101496.56;5266011;28;20028;-70
2023/05/01 02:09:20;;;;;;;5.95;3.47;;;;;;;13.19;86.12;101500.88;5266132;28;20553;-70
2023/05/01 02:11:53;;;;;;;4.60;3.10;;;;;;;13.27;87.13;101495.81;5264967;28;20043;-70
2023/05/01 02:14:25;;;;;;;4.63;2.78;;;;;;;13.13;86.89;101486.44;5269186;28;20085;-70
2023/05/01 02:16:58;;;;;;;6.05;3.00;;;;;;;13.15;85.23;101487.97;5266475;28;20067;-70
2023/05/01 02:19:32;;;;;;;5.03;2.90;;;;;;;13.19;87.48;101487.72;5268261;28;20032;-70
2023/05/01 02:22:04;;;;;;;6.50;3.50;;;;;;;13.08;87.01;101483.38;5270860;28;20023;-70
2023/05/01 02:24:38;;;;;;;5.95;3.40;;;;;;;13.11;86.08;101483.13;5265539;28;20024;-70
2023/05/01 02:27:20;;;;;;;7.90;3.58;;;;;;;13.23;87.01;101481.22;5267688;28;20032;-70
2023/05/01 02:29:52;;;;;;;3.47;2.70;;;;;;;13.05;86.37;101475.75;5268832;28;20084;-70
2023/05/01 02:32:24;;;;;;;5.57;2.92;;;;;;;13.02;88.20;101474.19;5266913;28;20033;-69
2023/05/01 02:34:56;;;;;;;6.63;3.30;;;;;;;13.07;86.94;101474.66;5267353;28;20032;-70
2023/05/01 02:37:29;;;;;;;5.50;3.20;;;;;;;13.03;88.29;101464.50;5268239;28;20345;-70
2023/05/01 02:40:01;;;;;;;5.45;3.63;;;;;;;13.03;89.57;101464.50;5265585;28;20078;-70
2023/05/01 02:42:36;;;;;;;4.60;2.97;;;;;;;13.05;87.72;101460.78;5262732;28;20048;-70
2023/05/01 02:45:09;;;;;;;4.85;3.50;;;;;;;13.01;88.63;101467.28;5265995;28;20111;-70
2023/05/01 02:47:43;;;;;;;4.35;3.17;;;;;;;12.96;89.02;101443.16;5268804;28;20032;-70
2023/05/01 02:50:16;;;;;;;5.63;3.42;;;;;;;12.97;89.06;101449.25;5265837;28;20050;-70
2023/05/01 02:52:48;;;;;;;5.68;3.05;;;;;;;13.02;88.86;101449.69;5265232;28;20036;-70
2023/05/01 02:55:19;;;;;;;6.32;3.85;;;;;;;13.03;88.53;101449.56;5267454;28;20036;-70
2023/05/01 02:57:51;;;;;;;6.57;3.85;;;;;;;12.96;88.53;101443.16;5266120;28;20024;-70
2023/05/01 03:00:22;;;;;;;6.03;3.22;;;;;;;12.93;88.53;101442.59;5265292;28;20035;-70
2023/05/01 03:02:54;;;;;;;5.57;3.35;;;;;;;12.94;89.45;101434.56;5269181;28;20401;-70
2023/05/01 03:05:25;;;;;;;5.20;3.30;;;;;;;12.93;90.71;101432.91;5268077;28;20093;-70
2023/05/01 03:07:56;;;;;;;5.82;3.17;;;;;;;12.89;90.33;101427.06;5267030;28;20336;-70
2023/05/01 03:10:28;;;;;;;4.45;3.80;;;;;;;12.87;90.52;101423.72;5263828;28;20052;-70
2023/05/01 03:12:59;;;;;;;5.80;3.40;;;;;;;12.93;90.24;101427.66;5267971;28;20033;-70
2023/05/01 03:15:31;;;;;;;5.60;3.47;;;;;;;12.90;90.07;101425.28;5268132;28;20107;-70
2023/05/01 03:18:03;;;;;;;6.88;3.88;;;;;;;12.90;89.47;101417.38;5269173;28;20078;-70
2023/05/01 03:20:34;;;;;;;6.70;3.47;;;;;;;12.87;89.91;101413.22;5267362;28;20269;-70
2023/05/01 03:23:06;;;;;;;8.02;3.75;;;;;;;12.86;90.52;101418.59;5269012;28;20016;-70
2023/05/01 03:25:37;;;;;;;4.28;3.38;;;;;;;12.89;89.95;101413.09;5267564;28;20075;-70
2023/05/01 03:28:09;;;;;;;4.53;3.75;;;;;;;12.82;89.23;101407.53;5266115;28;20476;-70
2023/05/01 03:30:41;;;;;;;6.80;3.85;;;;;;;12.77;89.99;101412.34;5267176;28;20682;-70
2023/05/01 03:33:12;;;;;;;9.88;3.83;;;;;;;12.79;89.86;101405.16;5268890;28;20036;-70
2023/05/01 03:35:43;;;;;;;5.60;3.38;;;;;;;12.80;89.57;101400.72;5269526;28;20064;-70
2023/05/01 03:38:15;;;;;;;5.80;3.55;;;;;;;12.79;90.42;101402.50;5268452;28;20040;-70
2023/05/01 03:40:46;;;;;;;5.43;4.05;;;;;;;12.78;92.55;101400.03;5268211;28;20035;-70
2023/05/01 03:43:17;;;;;;;5.40;3.38;;;;;;;12.68;91.79;101389.44;5265322;28;20021;-70
2023/05/01 03:45:50;;;;;;;7.75;4.40;;;;;;;12.73;92.00;101400.44;5266326;28;20032;-70
2023/05/01 03:48:21;;;;;;;4.43;3.27;;;;;;;12.73;90.65;101403.06;5267784;28;20036;-70
2023/05/01 03:50:52;;;;;;;8.23;3.83;;;;;;;12.71;93.53;101399.72;5265035;28;20294;-70
2023/05/01 03:53:24;;;;;;;6.22;3.60;;;;;;;12.72;89.77;101388.22;5266849;28;20055;-70
2023/05/01 03:55:56;;;;;;;7.47;3.63;;;;;;;12.64;91.55;101386.25;5264172;28;20115;-70
2023/05/01 03:58:27;;;;;;;6.47;3.55;;;;;;;12.64;94.47;101386.25;5264340;28;20025;-69
2023/05/01 04:00:59;;;;;;;5.68;3.47;;;;;;;12.65;92.44;101389.69;5265920;28;20485;-70
2023/05/01 04:03:30;;;;;;;5.40;4.10;;;;;;;12.63;91.12;101386.38;5265239;28;20029;-70
2023/05/01 04:06:02;;;;;;;4.50;3.20;;;;;;;12.68;91.30;101383.38;5266358;28;20032;-70
2023/05/01 04:08:33;;;;;;;7.30;4.35;;;;;;;12.60;92.37;101391.91;5265163;28;20088;-69
2023/05/01 04:11:05;;;;;;;8.77;4.50;;;;;;;12.61;91.15;101394.41;5266021;28;20396;-70
2023/05/01 04:13:36;;;;;;;5.63;3.97;;;;;;;12.61;90.93;101389.16;5264629;28;20392;-69
2023/05/01 04:16:08;;;;;;;8.98;4.00;;;;;;;12.63;91.13;101387.22;5265117;28;20140;-70
2023/05/01 04:18:39;;;;;;;7.00;3.85;;;;;;;12.59;91.13;101385.00;5269071;28;20397;-70
2023/05/01 04:21:10;;;;;;;6.65;3.80;;;;;;;12.58;92.69;101381.53;5265330;28;20029;-70
2023/05/01 04:23:41;;;;;;;5.78;3.78;;;;;;;12.52;95.02;101389.91;5265540;28;20036;-70
2023/05/01 04:26:13;;;;;;;4.95;3.60;;;;;;;12.52;96.35;101397.81;5266625;28;20025;-70
2023/05/01 04:28:44;;;;;;;7.57;3.95;;;;;;;12.52;95.48;101394.34;5265941;28;20497;-70
2023/05/01 04:31:16;;;;;;;6.13;4.00;;;;;;;12.50;97.10;101396.25;5263838;28;20378;-70
2023/05/01 04:33:47;;;;;;;5.78;4.00;;;;;;;12.49;96.64;101395.44;5265140;28;20382;-70
2023/05/01 04:36:18;;;;;;;6.18;3.90;;;;;;;12.49;96.36;101399.84;5270763;28;20115;-70
2023/05/01 04:38:49;;;;;;;6.93;4.35;;;;;;;12.45;99.19;101394.03;5268233;28;20017;-70
2023/05/01 04:41:21;;;;;;;7.53;4.47;;;;;;;12.38;98.42;101383.19;5266774;28;20087;-69
2023/05/01 04:43:52;;;;;;;8.55;4.38;;;;;;;12.44;98.00;101383.66;5267768;28;20409;-70
2023/05/01 04:46:23;;;;;;;6.47;4.20;;;;;;;12.45;99.26;101382.69;5269141;28;20119;-70
2023/05/01 04:48:55;;;;;;;6.90;4.22;;;;;;;12.43;100.00;101390.72;5271897;28;20079;-70
2023/05/01 04:51:27;;;;;;;7.63;4.00;;;;;;;12.48;100.00;101385.06;5267020;28;20020;-70
2023/05/01 04:53:59;;;;;;;8.52;4.32;;;;;;;12.43;100.00;101384.63;5273101;28;20032;-70
2023/05/01 04:56:30;;;;;;;7.15;4.38;;;;;;;12.44;100.00;101376.59;5268350;28;20036;-70
2023/05/01 04:59:02;;;;;;;7.63;4.03;;;;;;;12.48;99.43;101382.44;5269237;28;20032;-70
2023/05/01 05:01:33;;;;;;;10.27;4.43;;;;;;;12.49;97.80;101381.47;5266294;28;20028;-70
2023/05/01 05:04:04;;;;;;;7.20;4.10;;;;;;;12.44;97.04;101366.09;5267269;28;20035;-70
2023/05/01 05:06:36;;;;;;;8.90;4.68;;;;;;;12.46;100.00;101381.72;5270419;28;20035;-70
2023/05/01 05:09:07;;;;;;;7.53;4.63;;;;;;;12.49;99.26;101378.84;5270837;28;20017;-70
2023/05/01 05:11:38;;;;;;;5.93;4.43;;;;;;;12.50;98.42;101377.84;5267842;28;20020;-69
2023/05/01 05:14:09;;;;;;;7.03;4.10;;;;;;;12.47;100.00;101378.16;5268008;28;20517;-69
2023/05/01 05:16:41;;;;;;;7.38;4.78;;;;;;;12.41;97.74;101377.69;5267601;28;20032;-69
2023/05/01 05:19:12;;;;;;;8.85;4.30;;;;;;;12.47;97.03;101376.34;5269386;28;20024;-70
2023/05/01 05:21:43;;;;;;;8.20;5.03;;;;;;;12.46;94.51;101379.91;5261155;28;20039;-69
2023/05/01 05:24:15;;;;;;;6.45;4.55;;;;;;;12.50;95.94;101381.34;5269359;28;20043;-69
2023/05/01 05:26:46;;;;;;;7.38;4.82;;;;;;;12.48;94.51;101380.63;5267116;28;20565;-69
2023/05/01 05:29:18;;;;;;;8.55;5.35;;;;;;;12.49;96.68;101374.41;5267540;28;20478;-69
2023/05/01 05:31:49;;;;;;;6.15;4.70;;;;;;;12.51;97.91;101372.50;5257963;28;20501;-69
2023/05/01 05:34:20;;;;;;;7.18;4.95;;;;;;;12.52;98.24;101371.53;5260914;28;20029;-69
2023/05/01 05:36:51;;;;;;;8.25;5.13;;;;;;;12.47;94.39;101375.53;5261405;28;20032;-69
2023/05/01 05:39:23;;;;;;;11.05;4.95;;;;;;;12.51;95.03;101382.19;5262685;28;20024;-69
2023/05/01 05:41:54;;;;;;;7.60;4.97;;;;;;;12.57;95.83;101381.63;5266494;28;20028;-69
2023/05/01 05:44:25;;;;;;;8.73;5.30;;;;;;;12.64;98.25;101375.72;5268669;28;20033;-69
2023/05/01 05:46:56;;;;;;;8.65;5.45;;;;;;;12.73;96.25;101381.16;5262068;28;20025;-69
2023/05/01 05:49:28;;;;;;;11.05;5.85;;;;;;;12.79;94.04;101384.13;5270686;28;20038;-69
2023/05/01 05:51:59;;;;;;;7.60;4.78;;;;;;;12.86;96.29;101377.38;5267967;28;20205;-69
2023/05/01 05:54:30;;;;;;;8.90;5.63;;;;;;;12.92;95.29;101381.28;5266785;28;20028;-72
2023/05/01 05:57:03;;;;;;;12.27;5.75;;;;;;;13.03;94.16;101375.06;5269332;28;20028;-69
2023/05/01 05:59:35;;;;;;;8.35;5.35;;;;;;;13.08;94.60;101378.97;5269009;28;20386;-70
2023/05/01 06:02:06;;;;;;;6.82;4.93;;;;;;;13.08;92.98;101375.53;5268924;28;20028;-70
2023/05/01 06:04:37;;;;;;;8.57;5.57;;;;;;;13.07;92.39;101373.88;5266439;28;20012;-69
2023/05/01 06:07:09;;;;;;;7.10;5.28;;;;;;;13.09;91.42;101369.28;5270177;28;20063;-69
2023/05/01 06:09:40;;;;;;;12.25;5.35;;;;;;;13.15;91.93;101372.22;5263445;28;20545;-69
2023/05/01 06:12:11;;;;;;;7.75;5.47;;;;;;;13.22;95.36;101371.66;5263425;28;20080;-69
2023/05/01 06:14:43;;;;;;;7.93;5.50;;;;;;;13.26;91.03;101375.72;5268198;28;20082;-69
2023/05/01 06:17:14;;;;;;;9.38;6.18;;;;;;;13.31;93.21;101374.38;5265761;28;20043;-69
2023/05/01 06:19:45;;;;;;;9.13;6.13;;;;;;;13.38;94.19;101374.66;5271299;28;20098;-70
2023/05/01 06:22:20;;;;;;;11.57;6.53;;;;;;;13.36;91.71;101366.06;5269169;28;20023;-70
2023/05/01 06:24:51;;;;;;;8.77;5.90;;;;;;;13.48;93.17;101370.22;5267427;28;20119;-70
2023/05/01 06:27:22;;;;;;;7.20;5.75;;;;;;;13.52;90.39;101369.00;5266605;28;20506;-69
2023/05/01 06:29:53;;;;;;;12.40;5.90;;;;;;;13.58;90.21;101363.19;5265200;28;20521;-70
2023/05/01 06:32:25;;;;;;;8.98;6.15;;;;;;;13.60;90.26;101371.81;5265811;28;20032;-70
2023/05/01 06:34:56;;;;;;;6.95;5.53;;;;;;;13.65;93.34;101368.75;5268755;28;20020;-70
2023/05/01 06:37:27;;;;;;;10.23;6.32;;;;;;;13.69;91.08;101361.41;5267138;28;20060;-69
2023/05/01 06:39:58;;;;;;;7.70;5.50;;;;;;;13.79;91.91;101365.72;5260727;28;20549;-70
2023/05/01 06:42:30;;;;;;;8.80;5.82;;;;;;;13.77;89.32;101364.19;5264401;28;20029;-70
2023/05/01 06:45:02;;;;;;;9.65;6.10;;;;;;;13.85;89.37;101372.22;5247938;28;20063;-69
2023/05/01 06:47:34;;;;;;;7.10;6.18;;;;;;;13.98;90.03;101367.50;5267560;28;20050;-70
2023/05/01 06:50:06;;;;;;;10.65;6.45;;;;;;;14.02;89.08;101366.25;5265841;28;20154;-69
2023/05/01 06:52:37;;;;;;;8.60;5.88;;;;;;;14.10;91.06;101363.75;5265359;28;20056;-70
2023/05/01 06:55:09;;;;;;;8.02;5.78;;;;;;;14.19;90.40;101354.16;5268655;28;20071;-69
2023/05/01 06:57:40;;;;;;;11.57;6.40;;;;;;;14.26;87.52;101355.25;5265030;28;20541;-69
2023/05/01 07:00:12;;;;;;;9.48;5.72;;;;;;;14.35;87.55;101362.31;5263031;28;20493;-69
2023/05/01 07:02:44;;;;;;;10.77;6.05;;;;;;;14.38;88.19;101352.47;5266189;28;20493;-69
2023/05/01 07:05:16;;;;;;;10.43;6.32;;;;;;;14.42;85.13;101356.47;5266740;28;20157;-70
2023/05/01 07:07:48;;;;;;;10.32;6.60;;;;;;;14.58;84.61;101359.38;5264081;28;20367;-70
2023/05/01 07:10:19;;;;;;;9.38;6.40;;;;;;;14.63;86.79;101357.16;5268390;28;20028;-69
2023/05/01 07:12:50;;;;;;;10.77;6.18;;;;;;;14.74;84.34;101356.97;5267708;28;20023;-70
2023/05/01 07:15:22;;;;;;;10.88;6.18;;;;;;;14.76;82.30;101355.00;5265732;28;20958;-70
2023/05/01 07:17:55;;;;;;;13.23;6.93;;;;;;;14.90;82.33;101355.53;5268228;28;20397;-70
2023/05/01 07:20:26;;;;;;;8.23;6.15;;;;;;;14.95;82.16;101362.00;5266420;28;20131;-69
2023/05/01 07:22:57;;;;;;;11.18;6.18;;;;;;;15.00;82.75;101359.78;5266916;28;20109;-70
2023/05/01 07:25:28;;;;;;;10.02;6.50;;;;;;;14.96;84.37;101360.19;5264859;28;20645;-70
2023/05/01 07:28:03;;;;;;;10.85;6.05;;;;;;;15.14;78.32;101357.63;5269508;28;20016;-69
2023/05/01 07:30:35;;;;;;;10.00;6.20;;;;;;;15.19;77.25;101356.22;5262214;28;20667;-70
2023/05/01 07:33:06;;;;;;;10.43;5.82;;;;;;;15.33;77.68;101368.06;5262642;28;20037;-70
2023/05/01 07:35:37;;;;;;;8.15;5.90;;;;;;;15.43;79.97;101363.56;5265397;28;20397;-70
2023/05/01 07:38:09;;;;;;;10.27;6.00;;;;;;;15.55;78.67;101362.38;5265873;28;20028;-70
2023/05/01 07:40:40;;;;;;;8.85;5.82;;;;;;;15.70;77.31;101362.72;5262579;28;20046;-70
2023/05/01 07:43:12;;;;;;;10.00;6.45;;;;;;;15.79;76.24;101364.44;5262949;28;20039;-70
2023/05/01 07:45:54;;;;;;;8.50;6.93;;;;;;;16.21;79.73;101369.09;5267604;28;20112;-70
2023/05/01 07:48:28;;;;;;;11.20;6.53;;;;;;;16.14;74.07;101364.53;5269127;28;20033;-70
2023/05/01 07:51:02;;;;;;;11.73;7.20;;;;;;;16.28;77.57;101364.81;5259553;28;20090;-70
2023/05/01 07:53:34;;;;;;;10.50;6.50;;;;;;;16.26;74.97;101371.28;5265611;28;21278;-69
2023/05/01 07:56:09;;;;;;;11.52;7.55;;;;;;;16.56;77.63;101367.34;5266632;28;20039;-70
2023/05/01 07:58:41;;;;;;;8.10;6.72;;;;;;;16.65;76.52;101363.75;5265395;28;20502;-70
2023/05/01 08:01:12;;;;;;;7.90;5.80;;;;;;;16.71;72.96;101357.00;5264669;28;20035;-70
2023/05/01 08:03:43;;;;;;;14.98;7.20;;;;;;;16.68;71.82;101365.25;5266624;28;20508;-70
2023/05/01 08:06:15;;;;;;;12.32;7.50;;;;;;;16.95;76.62;101356.31;5264027;28;20561;-70
2023/05/01 08:08:46;;;;;;;11.50;6.82;;;;;;;17.02;72.96;101355.50;5267459;28;20502;-70
2023/05/01 08:11:17;;;;;;;9.82;7.05;;;;;;;17.24;71.74;101361.22;5269335;28;20433;-70
2023/05/01 08:13:49;;;;;;;11.27;7.65;;;;;;;17.20;69.45;101350.13;5271624;28;20051;-70
2023/05/01 08:16:20;;;;;;;10.90;7.30;;;;;;;17.50;72.00;101358.44;5269577;28;20078;-70
2023/05/01 08:18:51;;;;;;;15.60;6.63;;;;;;;17.51;69.03;101360.13;5272667;28;20028;-71
2023/05/01 08:21:23;;;;;;;15.20;6.68;;;;;;;17.65;70.09;101350.69;5270032;28;20456;-70
2023/05/01 08:23:58;;;;;;;12.88;6.25;;;;;;;17.76;67.38;101350.41;5263197;28;20387;-70
2023/05/01 08:26:29;;;;;;;9.07;6.53;;;;;;;17.98;73.38;101354.22;5267606;28;20028;-70
2023/05/01 08:29:00;;;;;;;10.70;6.50;;;;;;;18.06;66.67;101351.56;5270627;28;20032;-71
2023/05/01 08:31:32;;;;;;;10.20;6.30;;;;;;;18.18;66.37;101355.56;5271228;28;20107;-71
2023/05/01 08:34:03;;;;;;;14.50;6.57;;;;;;;18.22;64.70;101354.22;5270215;28;20398;-70
2023/05/01 08:36:35;;;;;;;9.55;6.00;;;;;;;18.28;64.39;101352.69;5270613;28;20028;-70
2023/05/01 08:39:06;;;;;;;7.97;5.93;;;;;;;18.36;65.95;101347.38;5270927;28;20027;-71
2023/05/01 08:41:38;;;;;;;8.27;5.97;;;;;;;18.31;64.13;101346.25;5261506;28;20032;-71
2023/05/01 08:44:11;;;;;;;6.80;5.68;;;;;;;18.30;59.93;101353.38;5271607;28;20008;-71
2023/05/01 08:47:07;;;;;;;9.27;6.60;;;;;;;18.42;60.95;101357.31;5268582;28;20531;-71
2023/05/01 08:49:40;;;;;;;7.03;5.53;;;;;;;18.42;61.96;101359.16;5258391;28;20390;-70
2023/05/01 08:52:13;;;;;;;8.48;5.57;;;;;;;18.37;61.94;101353.50;5270496;28;20063;-71
2023/05/01 08:54:47;;;;;;;7.75;5.93;;;;;;;18.55;60.69;101355.97;5269313;28;20048;-71
2023/05/01 08:57:20;;;;;;;7.28;6.03;;;;;;;18.39;62.66;101359.50;5266518;28;20149;-71
2023/05/01 08:59:52;;;;;;;18.52;7.00;;;;;;;18.43;61.06;101352.84;5268787;28;20032;-71
2023/05/01 09:02:24;;;;;;;10.05;6.22;;;;;;;18.59;61.74;101357.28;5269580;28;20021;-71
2023/05/01 09:04:58;;;;;;;7.80;5.93;;;;;;;18.56;60.61;101363.78;5270383;28;20115;-71
2023/05/01 09:07:29;;;;;;;7.35;6.22;;;;;;;18.73;61.28;101361.91;5267927;28;20326;-71
2023/05/01 09:10:01;;;;;;;10.50;6.82;;;;;;;18.71;60.45;101366.56;5271282;28;20565;-71
2023/05/01 09:12:34;;;;;;;9.20;6.80;;;;;;;18.81;63.16;101359.22;5264906;28;20029;-71
2023/05/01 09:15:06;;;;;;;9.13;6.32;;;;;;;18.78;60.25;101358.75;5264982;28;20013;-70
2023/05/01 09:17:38;;;;;;;9.77;6.18;;;;;;;18.84;60.67;101361.56;5261561;28;20429;-70
2023/05/01 09:20:10;;;;;;;8.77;7.05;;;;;;;18.92;60.80;101363.34;5257863;28;20029;-70
2023/05/01 09:22:41;;;;;;;9.52;6.05;;;;;;;18.95;61.82;101360.34;5266416;28;20035;-70
2023/05/01 09:25:13;;;;;;;6.93;6.20;;;;;;;19.06;59.29;101367.13;5270122;28;20054;-70
2023/05/01 09:27:44;;;;;;;9.85;6.00;;;;;;;19.14;59.15;101362.59;5265479;28;20499;-70
2023/05/01 09:30:32;;;;;;;11.33;6.57;;;;;;;19.44;60.35;101358.28;5268265;28;20520;-70
2023/05/01 09:33:07;;;;;;;6.70;5.55;;;;;;;19.42;55.61;101362.09;5267597;28;20025;-70
2023/05/01 09:35:56;;;;;;;6.80;5.20;;;;;;;19.73;57.24;101362.06;5269129;28;20543;-70
2023/05/01 09:38:28;;;;;;;8.98;6.20;;;;;;;19.50;56.23;101358.56;5260649;28;20036;-70
2023/05/01 09:41:04;;;;;;;6.50;5.60;;;;;;;19.93;56.65;101362.44;5267010;28;20028;-70
2023/05/01 09:43:35;;;;;;;9.43;6.63;;;;;;;19.91;55.58;101353.81;5261601;28;20162;-69
2023/05/01 09:46:11;;;;;;;10.32;6.22;;;;;;;19.99;53.79;101353.72;5268636;28;20032;-69
2023/05/01 09:48:59;;;;;;;12.38;6.07;;;;;;;20.56;54.24;101352.38;5268834;28;20554;-69
2023/05/01 09:51:32;;;;;;;7.55;6.25;;;;;;;20.40;53.84;101348.84;5267901;28;20029;-70
2023/05/01 09:54:05;;;;;;;9.25;6.15;;;;;;;20.74;53.94;101354.69;5263685;28;20042;-70
2023/05/01 09:56:46;;;;;;;8.25;6.40;;;;;;;20.81;53.44;101358.25;5265775;28;20059;-70
2023/05/01 09:59:19;;;;;;;9.35;6.57;;;;;;;20.54;54.05;101363.22;5256185;28;20464;-70
2023/05/01 10:01:51;;;;;;;8.13;6.25;;;;;;;20.80;57.01;101362.75;5263128;28;20028;-70
2023/05/01 10:04:32;;;;;;;11.00;6.30;;;;;;;20.83;52.36;101365.03;5263845;28;20816;-70
2023/05/01 10:07:14;;;;;;;7.93;5.88;;;;;;;20.74;50.17;101362.66;5263400;28;20058;-69
2023/05/01 10:09:45;;;;;;;6.53;5.50;;;;;;;20.57;51.82;101359.34;5261425;28;20492;-70
2023/05/01 10:12:27;;;;;;;7.53;5.97;;;;;;;20.77;53.18;101362.31;5265702;28;20028;-70
2023/05/01 10:14:59;;;;;;;7.30;5.97;;;;;;;20.67;48.88;101364.41;5265413;28;20374;-70
2023/05/01 10:17:30;;;;;;;8.90;5.60;;;;;;;20.65;49.36;101368.09;5265739;28;20043;-70
2023/05/01 10:20:03;;;;;;;8.10;5.80;;;;;;;20.57;50.73;101370.00;5268637;28;20028;-70
2023/05/01 10:22:34;;;;;;;7.25;5.93;;;;;;;20.67;51.64;101370.56;5267550;28;20115;-70
2023/05/01 10:25:07;;;;;;;7.30;6.00;;;;;;;20.71;52.31;101365.69;5265805;28;20033;-69
2023/05/01 10:27:39;;;;;;;8.23;5.70;;;;;;;20.78;52.90;101369.28;5266031;28;20037;-70
2023/05/01 10:30:11;;;;;;;11.30;6.05;;;;;;;20.80;51.23;101367.25;5266795;28;20425;-70
2023/05/01 10:32:42;;;;;;;7.97;6.37;;;;;;;20.84;49.74;101371.22;5263244;28;20024;-70
2023/05/01 10:35:19;;;;;;;10.67;5.77;;;;;;;20.89;51.74;101371.47;5265415;28;20624;-69
2023/05/01 10:37:59;;;;;;;7.70;5.28;;;;;;;20.89;51.49;101368.81;5267285;28;20024;-70
2023/05/01 10:40:43;;;;;;;7.65;5.75;;;;;;;20.97;54.22;101375.88;5269327;28;20066;-70
2023/05/01 10:43:26;;;;;;;7.03;5.82;;;;;;;20.71;52.06;101368.34;5261811;28;20033;-70
2023/05/01 10:46:06;;;;;;;9.38;6.18;;;;;;;20.83;53.09;101378.34;5268339;28;20024;-70
2023/05/01 10:48:43;;;;;;;9.55;5.82;;;;;;;20.61;51.78;101385.44;5266326;28;20036;-69
2023/05/01 10:51:20;;;;;;;9.68;6.00;;;;;;;20.47;51.15;101386.22;5266713;28;20033;-70
2023/05/01 10:54:11;;;;;;;7.70;5.72;;;;;;;20.94;54.56;101382.38;5269498;28;20475;-70
2023/05/01 10:56:43;;;;;;;8.10;6.00;;;;;;;20.70;50.76;101383.50;5242661;28;20373;-70
2023/05/01 10:59:14;;;;;;;10.10;6.20;;;;;;;20.80;49.86;101386.72;5261762;28;20285;-70
2023/05/01 11:01:47;;;;;;;8.27;5.80;;;;;;;20.95;50.51;101384.06;5264220;28;20434;-70
2023/05/01 11:04:21;;;;;;;9.65;5.93;;;;;;;20.99;49.28;101379.19;5259846;28;20019;-70
2023/05/01 11:07:04;;;;;;;9.13;6.20;;;;;;;21.21;50.23;101375.53;5264495;28;20111;-69
2023/05/01 11:09:40;;;;;;;;;;;;;;;21.84;48.59;101379.31;5266204;28;20032;-70
2023/05/01 11:12:13;;;;;;;6.95;5.55;;;;;;;21.03;51.52;101377.81;5268708;28;19916;-70
2023/05/01 11:14:54;;;;;;;9.10;6.25;;;;;;;21.21;51.19;101382.72;5264766;28;20093;-70
2023/05/01 11:17:48;;;;;;;8.85;6.20;;;;;;;21.31;49.84;101375.25;5263488;28;20074;-69
2023/05/01 11:20:25;;;;;;;12.55;6.43;;;;;;;20.95;49.68;101381.41;5265993;28;20050;-70
2023/05/01 11:22:57;;;;;;;7.90;6.53;;;;;;;20.80;48.24;101385.91;5268852;28;20536;-69
2023/05/01 11:25:30;;;;;;;8.70;5.85;;;;;;;20.96;49.09;101384.88;5269143;28;20226;-70
2023/05/01 11:28:02;;;;;;;9.15;5.85;;;;;;;21.18;50.74;101388.44;5267267;28;20036;-70
2023/05/01 11:30:39;;;;;;;7.55;6.03;;;;;;;21.38;48.24;101386.84;5266177;28;20024;-70
2023/05/01 11:33:11;;;;;;;6.60;5.50;;;;;;;21.41;48.67;101386.50;5263455;28;20365;-70
2023/05/01 11:35:43;;;;;;;8.17;5.80;;;;;;;21.50;45.99;101385.34;5262377;28;20024;-70
2023/05/01 11:38:17;;;;;;;6.27;5.27;;;;;;;21.55;46.27;101379.44;5266810;28;20111;-69
2023/05/01 11:40:55;;;;;;;7.65;5.38;;;;;;;21.59;44.72;101389.56;5263574;28;20356;-70
2023/05/01 11:43:26;;;;;;;6.30;4.75;;;;;;;21.37;46.82;101385.22;5267759;28;20247;-70
2023/05/01 11:46:01;;;;;;;6.00;4.77;;;;;;;21.50;44.87;101379.19;5263203;28;20050;-70
2023/05/01 11:48:32;;;;;;;6.63;4.68;;;;;;;21.51;42.64;101381.66;5256782;28;20028;-70
2023/05/01 11:51:13;;;;;;;6.10;4.30;;;;;;;21.86;42.55;101376.47;5261686;28;20040;-70
2023/05/01 11:53:59;;;;;;;8.60;4.88;;;;;;;22.04;44.58;101381.34;5250732;28;20105;-71